Time;durP1;ratioP1;P1;durP2;ratioP2;P2;SDS_P1;SDS_P2;PMS_P1;PMS_P2;Temp;Humidity;BMP_temperature;BMP_pressure;BME280_temperature;BME280_humidity;BME280_pressure;Samples;Min_cycle;Max_cycle;Signal;HPM_P1;HPM_P2
2024/01/28 00:01:30;;;;;;;6.33;2.40;;;5.00;1.00;;;;;;5050390;28;20992;-77
2024/01/28 00:03:55;;;;;;;4.30;2.50;;;5.00;1.00;;;;;;5050234;28;20283;-78
2024/01/28 00:06:21;;;;;;;5.43;2.60;;;5.20;1.00;;;;;;5051214;28;20177;-77
2024/01/28 00:08:46;;;;;;;6.10;2.67;;;5.30;1.00;;;;;;5046825;28;20242;-78
2024/01/28 00:11:12;;;;;;;7.30;3.10;;;5.00;1.00;;;;;;5046975;28;20209;-77
2024/01/28 00:13:37;;;;;;;4.30;2.83;;;5.00;1.00;;;;;;5041227;28;20178;-78
2024/01/28 00:16:03;;;;;;;5.10;2.70;;;5.00;1.00;;;;;;5047727;28;20644;-78
2024/01/28 00:18:29;;;;;;;7.10;3.23;;;5.00;1.00;;;;;;5036402;28;20648;-78
2024/01/28 00:20:55;;;;;;;9.83;2.50;;;5.00;1.00;;;;;;5045540;28;20678;-79
2024/01/28 00:23:20;;;;;;;5.37;2.80;;;5.00;1.00;;;;;;5039169;28;20531;-78
2024/01/28 00:25:46;;;;;;;5.47;2.90;;;4.90;1.00;;;;;;5049981;28;20315;-77
2024/01/28 00:28:12;;;;;;;4.83;2.90;;;5.20;1.00;;;;;;5049137;28;20618;-78
2024/01/28 00:30:37;;;;;;;4.83;2.70;;;4.90;1.00;;;;;;5035671;28;20209;-77
2024/01/28 00:33:03;;;;;;;11.70;4.40;;;5.40;1.00;;;;;;5039960;28;20547;-77
2024/01/28 00:35:28;;;;;;;5.67;2.87;;;4.90;1.00;;;;;;5049287;28;20655;-77
2024/01/28 00:37:57;;;;;;;7.27;3.20;;;5.00;1.00;;;;;;5045306;28;20174;-79
2024/01/28 00:40:23;;;;;;;5.60;3.10;;;4.90;1.00;;;;;;5041875;28;20197;-77
2024/01/28 00:42:49;;;;;;;6.93;3.00;;;4.90;1.00;;;;;;5041829;28;20417;-77
2024/01/28 00:45:14;;;;;;;7.93;3.10;;;5.10;1.00;;;;;;5041175;28;20492;-78
2024/01/28 00:47:43;;;;;;;5.47;2.50;;;5.00;1.00;;;;;;5035263;28;20182;-76
2024/01/28 00:50:08;;;;;;;7.73;3.63;;;4.80;1.00;;;;;;5038364;28;20723;-76
2024/01/28 00:52:34;;;;;;;4.70;3.00;;;4.80;1.00;;;;;;5039469;28;20412;-77
2024/01/28 00:54:59;;;;;;;5.57;3.40;;;4.80;1.00;;;;;;5031251;28;20190;-77
2024/01/28 00:57:25;;;;;;;5.43;3.17;;;4.90;1.00;;;;;;5034869;28;20255;-77
2024/01/28 00:59:50;;;;;;;10.60;4.13;;;5.10;1.00;;;;;;5042318;28;20178;-77
2024/01/28 01:02:16;;;;;;;11.57;3.73;;;4.70;1.00;;;;;;5049237;28;20737;-76
2024/01/28 01:04:41;;;;;;;5.50;3.27;;;4.70;1.00;;;;;;5041995;28;20238;-77
2024/01/28 01:07:07;;;;;;;4.17;3.00;;;4.60;1.00;;;;;;5041691;28;20663;-78
2024/01/28 01:09:32;;;;;;;8.27;3.10;;;5.10;1.00;;;;;;5038794;28;20263;-77
2024/01/28 01:11:58;;;;;;;6.30;3.17;;;4.70;1.00;;;;;;5035332;28;20621;-78
2024/01/28 01:14:24;;;;;;;5.93;2.80;;;4.70;1.00;;;;;;5033210;28;20531;-77
2024/01/28 01:16:49;;;;;;;4.40;2.87;;;4.70;1.00;;;;;;5049519;28;20261;-77
2024/01/28 01:19:15;;;;;;;11.07;3.13;;;4.50;1.00;;;;;;5032795;28;20733;-77
2024/01/28 01:21:40;;;;;;;7.60;3.20;;;4.70;1.00;;;;;;5040484;28;20204;-77
2024/01/28 01:24:06;;;;;;;6.83;2.83;;;4.70;1.00;;;;;;5049385;28;20259;-77
2024/01/28 01:26:31;;;;;;;5.43;3.27;;;4.70;1.00;;;;;;5041458;28;20477;-77
2024/01/28 01:28:57;;;;;;;4.70;3.20;;;4.70;1.00;;;;;;5049091;28;20185;-75
2024/01/28 01:31:22;;;;;;;7.20;3.50;;;4.60;1.00;;;;;;5037988;28;20237;-79
2024/01/28 01:33:48;;;;;;;9.77;3.50;;;4.60;1.00;;;;;;5037469;28;20173;-77
2024/01/28 01:36:13;;;;;;;9.13;3.30;;;4.60;1.00;;;;;;5046337;28;20705;-76
2024/01/28 01:38:39;;;;;;;10.23;2.97;;;4.60;1.00;;;;;;5035915;28;20188;-77
2024/01/28 01:41:04;;;;;;;5.63;2.90;;;4.50;1.00;;;;;;5038096;28;20711;-77
2024/01/28 01:43:30;;;;;;;3.93;2.50;;;4.40;1.00;;;;;;5040561;28;20177;-78
2024/01/28 01:45:56;;;;;;;5.20;2.90;;;4.40;1.00;;;;;;5037289;28;20181;-77
2024/01/28 01:48:22;;;;;;;4.60;3.03;;;4.40;1.00;;;;;;5040288;28;20578;-77
2024/01/28 01:50:48;;;;;;;5.00;2.90;;;4.30;1.00;;;;;;5033530;28;20363;-78
2024/01/28 01:53:13;;;;;;;6.70;3.03;;;4.30;1.00;;;;;;5048187;28;20518;-75
2024/01/28 01:55:40;;;;;;;5.60;3.20;;;4.20;1.00;;;;;;5039458;28;20174;-76
2024/01/28 01:58:08;;;;;;;6.10;2.60;;;4.30;1.00;;;;;;5038838;28;20174;-77
2024/01/28 02:00:34;;;;;;;7.17;2.97;;;4.50;1.00;;;;;;5036973;28;20446;-79
2024/01/28 02:03:03;;;;;;;10.13;3.43;;;4.50;1.00;;;;;;5040517;28;20435;-77
2024/01/28 02:05:29;;;;;;;6.20;3.20;;;4.60;1.00;;;;;;5029736;28;20413;-77
2024/01/28 02:07:54;;;;;;;10.53;3.17;;;4.60;1.00;;;;;;5032522;28;21005;-79
2024/01/28 02:10:22;;;;;;;11.20;3.83;;;4.50;1.00;;;;;;5045713;28;20255;-81
2024/01/28 02:12:49;;;;;;;7.67;3.97;;;4.50;1.00;;;;;;5034263;28;20247;-78
2024/01/28 02:15:16;;;;;;;7.47;3.47;;;4.30;1.00;;;;;;5047795;28;20408;-77
2024/01/28 02:17:42;;;;;;;7.03;3.77;;;4.10;1.00;;;;;;5043478;28;20419;-77
2024/01/28 02:20:08;;;;;;;7.00;4.20;;;3.50;1.00;;;;;;5039778;28;20763;-77
2024/01/28 02:22:33;;;;;;;10.90;5.40;;;3.50;1.00;;;;;;5035859;28;20688;-77
2024/01/28 02:24:59;;;;;;;14.83;6.47;;;3.30;1.00;;;;;;5034109;28;20416;-79
2024/01/28 02:27:25;;;;;;;18.10;5.60;;;3.10;1.00;;;;;;5048851;28;20261;-77
2024/01/28 02:29:50;;;;;;;12.50;6.67;;;2.90;1.00;;;;;;5047759;28;20678;-77
2024/01/28 02:32:17;;;;;;;12.53;6.90;;;2.80;1.00;;;;;;5038387;28;20212;-77
2024/01/28 02:34:43;;;;;;;15.63;7.87;;;2.70;1.00;;;;;;5036856;28;20178;-77
2024/01/28 02:37:12;;;;;;;15.50;7.80;;;2.60;1.00;;;;;;5036234;28;20415;-77
2024/01/28 02:39:38;;;;;;;20.33;8.30;;;2.50;1.00;;;;;;5039450;28;20459;-79
2024/01/28 02:42:04;;;;;;;16.47;7.27;;;2.50;1.00;;;;;;5035529;28;20969;-78
2024/01/28 02:44:30;;;;;;;14.70;7.10;;;2.40;1.00;;;;;;5039026;28;20439;-77
2024/01/28 02:46:56;;;;;;;19.93;7.70;;;2.30;1.00;;;;;;5039864;28;20208;-77
2024/01/28 02:49:23;;;;;;;13.20;7.90;;;2.30;1.00;;;;;;5043490;28;20674;-77
2024/01/28 02:51:52;;;;;;;23.00;8.50;;;2.20;1.00;;;;;;5046629;28;20549;-77
2024/01/28 02:54:18;;;;;;;21.00;8.47;;;2.20;1.00;;;;;;5046219;28;20965;-77
2024/01/28 02:56:44;;;;;;;17.73;8.53;;;2.20;1.00;;;;;;5048713;28;20518;-77
2024/01/28 02:59:15;;;;;;;26.83;9.40;;;2.10;1.00;;;;;;5046516;28;20813;-77
2024/01/28 03:01:48;;;;;;;25.07;9.00;;;2.00;1.00;;;;;;5042043;28;20714;-77
2024/01/28 03:04:13;;;;;;;18.00;8.60;;;2.30;1.00;;;;;;5041099;28;20430;-77
2024/01/28 03:06:39;;;;;;;27.40;9.50;;;1.90;1.00;;;;;;5045026;28;20785;-80
2024/01/28 03:09:05;;;;;;;22.90;9.80;;;2.30;1.00;;;;;;5036211;28;20240;-77
2024/01/28 03:11:30;;;;;;;19.83;9.63;;;1.90;1.00;;;;;;5032685;28;20234;-77
2024/01/28 03:13:56;;;;;;;18.40;9.40;;;1.80;1.00;;;;;;5047204;28;20220;-78
2024/01/28 03:16:22;;;;;;;19.23;9.00;;;2.10;1.00;;;;;;5041187;28;20178;-77
2024/01/28 03:18:48;;;;;;;19.43;9.83;;;2.40;1.00;;;;;;5037422;28;20250;-78
2024/01/28 03:21:13;;;;;;;19.57;9.80;;;1.70;1.00;;;;;;5049377;28;20596;-77
2024/01/28 03:23:39;;;;;;;17.07;9.13;;;2.00;1.00;;;;;;5044312;28;20193;-77
2024/01/28 03:26:04;;;;;;;22.57;9.87;;;2.10;1.00;;;;;;5052095;28;20181;-77
2024/01/28 03:28:31;;;;;;;18.83;9.80;;;1.70;1.00;;;;;;5043754;28;20213;-78
2024/01/28 03:30:57;;;;;;;16.90;10.00;;;1.70;1.00;;;;;;5044408;28;20561;-77
2024/01/28 03:33:22;;;;;;;19.20;9.97;;;2.00;1.00;;;;;;5033822;28;20423;-78
2024/01/28 03:35:48;;;;;;;21.83;10.20;;;1.70;1.00;;;;;;5042988;28;20220;-77
2024/01/28 03:38:13;;;;;;;19.50;9.80;;;1.70;1.00;;;;;;5049778;28;20239;-77
2024/01/28 03:40:39;;;;;;;23.70;9.47;;;1.70;1.00;;;;;;5045785;28;20541;-78
2024/01/28 03:43:04;;;;;;;18.60;9.67;;;1.70;1.00;;;;;;5040351;28;20181;-76
2024/01/28 03:45:30;;;;;;;22.10;10.00;;;1.60;1.00;;;;;;5048170;28;20204;-77
2024/01/28 03:47:55;;;;;;;23.13;10.43;;;1.60;1.00;;;;;;5045891;28;20181;-77
2024/01/28 03:50:22;;;;;;;21.70;9.90;;;;;;;;;;5043031;28;20747;-80
2024/01/28 03:52:47;;;;;;;28.90;10.97;;;1.40;1.00;;;;;;5040569;28;20178;-78
2024/01/28 03:55:13;;;;;;;15.83;8.87;;;1.40;1.00;;;;;;5039444;28;20461;-75
2024/01/28 03:57:39;;;;;;;23.50;10.13;;;1.40;1.00;;;;;;5047562;28;20268;-77
2024/01/28 04:00:06;;;;;;;19.83;10.87;;;1.30;1.00;;;;;;5050531;28;20181;-77
2024/01/28 04:02:32;;;;;;;22.13;9.77;;;1.30;1.00;;;;;;5039291;28;20420;-76
2024/01/28 04:04:57;;;;;;;28.33;10.13;;;1.30;1.00;;;;;;5039092;28;20507;-75
2024/01/28 04:07:23;;;;;;;19.33;10.80;;;1.40;1.00;;;;;;5047153;28;20185;-78
2024/01/28 04:09:48;;;;;;;27.13;11.30;;;1.20;1.00;;;;;;5045166;28;20209;-77
2024/01/28 04:12:14;;;;;;;20.93;11.13;;;1.10;1.00;;;;;;5038571;28;20247;-78
2024/01/28 04:14:39;;;;;;;24.30;11.80;;;1.40;1.00;;;;;;5050486;28;20254;-76
2024/01/28 04:17:06;;;;;;;25.33;11.60;;;1.60;1.00;;;;;;5039769;28;20170;-77
2024/01/28 04:19:31;;;;;;;22.50;11.20;;;1.20;1.00;;;;;;5047180;28;20169;-77
2024/01/28 04:21:57;;;;;;;25.83;10.80;;;1.10;1.00;;;;;;5046503;28;20428;-77
2024/01/28 04:24:22;;;;;;;23.27;10.53;;;1.10;1.00;;;;;;5040375;28;20177;-78
2024/01/28 04:26:49;;;;;;;24.80;10.50;;;1.00;1.00;;;;;;5038767;28;20213;-77
2024/01/28 04:29:14;;;;;;;19.90;11.00;;;0.90;1.00;;;;;;5047129;28;20609;-77
2024/01/28 04:31:43;;;;;;;21.07;10.40;;;0.90;1.00;;;;;;5048303;28;20455;-77
2024/01/28 04:34:09;;;;;;;19.50;9.80;;;0.80;1.00;;;;;;5050182;28;20663;-76
2024/01/28 04:36:35;;;;;;;19.70;10.17;;;1.40;1.00;;;;;;5040683;28;20422;-77
2024/01/28 04:39:02;;;;;;;29.27;9.93;;;;;;;;;;5043175;28;20412;-76
2024/01/28 04:41:28;;;;;;;25.23;11.30;;;0.80;1.00;;;;;;5041108;28;20203;-77
2024/01/28 04:43:53;;;;;;;18.50;9.03;;;0.60;1.00;;;;;;5035613;28;20791;-78
2024/01/28 04:46:19;;;;;;;22.87;10.20;;;0.80;1.00;;;;;;5041012;28;20181;-76
2024/01/28 04:48:45;;;;;;;17.80;9.40;;;;;;;;;;5034078;28;20188;-77
2024/01/28 04:51:11;;;;;;;25.80;9.37;;;0.70;1.00;;;;;;5040767;28;20647;-78
2024/01/28 04:53:36;;;;;;;19.80;9.93;;;1.00;1.00;;;;;;5028379;28;20563;-77
2024/01/28 04:56:02;;;;;;;18.87;10.10;;;0.60;1.00;;;;;;5036129;28;20196;-78
2024/01/28 04:58:28;;;;;;;20.80;10.20;;;0.60;1.00;;;;;;5043494;28;20169;-78
2024/01/28 05:00:54;;;;;;;15.37;9.30;;;0.50;1.00;;;;;;5044141;28;20287;-78
2024/01/28 05:03:20;;;;;;;18.83;9.30;;;0.50;1.00;;;;;;5046056;28;20644;-79
2024/01/28 05:05:46;;;;;;;19.37;8.77;;;0.50;1.00;;;;;;5036185;28;20504;-77
2024/01/28 05:08:12;;;;;;;18.93;9.73;;;0.60;1.00;;;;;;5029221;28;20182;-78
2024/01/28 05:10:38;;;;;;;20.87;10.00;;;0.50;1.00;;;;;;5029039;28;20297;-76
2024/01/28 05:13:04;;;;;;;18.97;10.23;;;0.50;1.00;;;;;;5040156;28;21021;-76
2024/01/28 05:15:29;;;;;;;19.10;10.47;;;0.40;1.00;;;;;;5035056;28;20496;-77
2024/01/28 05:17:55;;;;;;;22.83;11.03;;;0.80;1.00;;;;;;5041268;28;20169;-78
2024/01/28 05:20:21;;;;;;;17.33;8.73;;;0.50;1.00;;;;;;5048178;28;20189;-75
2024/01/28 05:22:47;;;;;;;16.83;8.87;;;0.90;1.00;;;;;;5042003;28;20178;-77
2024/01/28 05:25:13;;;;;;;14.73;8.93;;;0.70;1.00;;;;;;5036832;28;20442;-77
2024/01/28 05:27:40;;;;;;;18.30;9.17;;;0.40;1.00;;;;;;5028583;28;20181;-77
2024/01/28 05:30:06;;;;;;;19.90;8.63;;;0.30;1.00;;;;;;5036220;28;20470;-78
2024/01/28 05:32:33;;;;;;;17.80;9.30;;;;;;;;;;5044813;28;20770;-76
2024/01/28 05:35:02;;;;;;;17.03;9.30;;;0.30;1.00;;;;;;5040302;28;20252;-76
2024/01/28 05:37:28;;;;;;;20.57;9.10;;;0.40;1.00;;;;;;5048052;28;20412;-79
2024/01/28 05:39:53;;;;;;;17.83;10.43;;;0.70;1.00;;;;;;5045988;28;20418;-77
2024/01/28 05:42:19;;;;;;;23.90;11.10;;;0.20;1.00;;;;;;5040659;28;20336;-76
2024/01/28 05:44:44;;;;;;;19.70;9.60;;;0.20;1.00;;;;;;5028807;28;20200;-77
2024/01/28 05:47:10;;;;;;;19.17;8.67;;;0.50;1.00;;;;;;5036094;28;20682;-77
2024/01/28 05:49:35;;;;;;;21.07;9.70;;;0.60;1.00;;;;;;5043889;28;20180;-77
2024/01/28 05:52:01;;;;;;;16.93;10.17;;;0.20;1.00;;;;;;5036938;28;20201;-76
2024/01/28 05:54:26;;;;;;;20.30;11.93;;;0.20;1.00;;;;;;5045967;28;20169;-79
2024/01/28 05:56:52;;;;;;;18.80;10.50;;;;;;;;;;5038472;28;20184;-77
2024/01/28 05:59:18;;;;;;;22.77;11.87;;;0.10;1.00;;;;;;5038070;28;20204;-77
2024/01/28 06:01:43;;;;;;;22.00;10.80;;;0.20;1.00;;;;;;5039826;28;20205;-78
2024/01/28 06:04:09;;;;;;;20.27;10.27;;;0.10;1.00;;;;;;5032806;28;20261;-79
2024/01/28 06:06:35;;;;;;;15.67;10.10;;;0.60;1.00;;;;;;5038881;28;20173;-79
2024/01/28 06:09:00;;;;;;;16.90;10.20;;;0.10;1.00;;;;;;5035537;28;21069;-77
2024/01/28 06:11:27;;;;;;;21.90;13.47;;;0.10;1.00;;;;;;5043829;28;20438;-76
2024/01/28 06:13:52;;;;;;;21.93;12.60;;;-0.10;1.00;;;;;;5051547;28;20176;-77
2024/01/28 06:16:18;;;;;;;26.23;12.13;;;0.30;1.00;;;;;;5052771;28;20411;-77
2024/01/28 06:18:43;;;;;;;16.87;10.07;;;0.00;1.00;;;;;;5041381;28;20227;-76
2024/01/28 06:21:13;;;;;;;19.13;11.27;;;0.10;1.00;;;;;;5045218;28;20201;-77
2024/01/28 06:23:39;;;;;;;26.03;11.47;;;0.50;1.00;;;;;;5042804;28;20217;-77
2024/01/28 06:26:05;;;;;;;21.00;11.10;;;0.00;1.00;;;;;;5045918;28;20950;-77
2024/01/28 06:28:31;;;;;;;24.63;11.43;;;0.50;1.00;;;;;;5047702;28;20596;-77
2024/01/28 06:30:56;;;;;;;21.27;10.50;;;0.00;1.00;;;;;;5040082;28;20459;-77
2024/01/28 06:33:22;;;;;;;21.63;10.60;;;0.40;1.00;;;;;;5051802;28;20422;-77
2024/01/28 06:35:47;;;;;;;25.93;10.13;;;0.00;1.00;;;;;;5052289;28;20199;-77
2024/01/28 06:38:13;;;;;;;17.47;10.70;;;0.20;1.00;;;;;;5048018;28;20184;-77
2024/01/28 06:40:39;;;;;;;19.63;10.30;;;0.10;1.00;;;;;;5045379;28;20205;-77
2024/01/28 06:43:04;;;;;;;23.50;10.77;;;;;;;;;;5049550;28;20552;-76
2024/01/28 06:45:30;;;;;;;25.30;9.20;;;-0.20;1.00;;;;;;5048522;28;20663;-77
2024/01/28 06:47:56;;;;;;;23.77;10.00;;;0.40;1.00;;;;;;5044772;28;20423;-77
2024/01/28 06:50:21;;;;;;;25.00;9.40;;;-0.10;1.00;;;;;;5051776;28;20583;-77
2024/01/28 06:52:50;;;;;;;17.60;8.87;;;0.30;1.00;;;;;;5035511;28;20185;-78
2024/01/28 06:55:17;;;;;;;18.63;9.10;;;0.30;1.00;;;;;;5042402;28;20517;-77
2024/01/28 06:57:42;;;;;;;15.93;8.20;;;-0.10;1.00;;;;;;5041952;28;20415;-77
2024/01/28 07:00:13;;;;;;;16.43;9.10;;;-0.10;1.00;;;;;;5040640;28;20470;-77
2024/01/28 07:02:39;;;;;;;17.10;9.20;;;-0.10;1.00;;;;;;5037402;28;20189;-77
2024/01/28 07:05:05;;;;;;;15.50;8.77;;;0.00;1.00;;;;;;5035123;28;20429;-77
2024/01/28 07:07:30;;;;;;;24.03;9.87;;;0.00;1.00;;;;;;5040017;28;20186;-77
2024/01/28 07:09:56;;;;;;;17.73;9.10;;;0.10;1.00;;;;;;5039502;28;20792;-78
2024/01/28 07:12:21;;;;;;;22.17;9.87;;;0.50;1.00;;;;;;5033133;28;20704;-77
2024/01/28 07:14:47;;;;;;;18.47;8.80;;;0.50;1.00;;;;;;5047749;28;20193;-78
2024/01/28 07:17:12;;;;;;;17.23;8.97;;;0.20;1.00;;;;;;5040967;28;20207;-77
2024/01/28 07:19:40;;;;;;;19.23;9.10;;;0.40;1.00;;;;;;5042295;28;20193;-77
2024/01/28 07:22:06;;;;;;;16.50;9.63;;;0.00;1.00;;;;;;5046549;28;20217;-77
2024/01/28 07:24:31;;;;;;;23.20;10.00;;;0.50;1.00;;;;;;5047645;28;20910;-75
2024/01/28 07:26:57;;;;;;;29.73;10.23;;;0.10;1.00;;;;;;5038074;28;20731;-78
2024/01/28 07:29:22;;;;;;;19.33;10.47;;;0.60;1.00;;;;;;5045419;28;20847;-76
2024/01/28 07:31:48;;;;;;;20.23;9.97;;;0.20;1.00;;;;;;5036923;28;20230;-77
2024/01/28 07:34:18;;;;;;;22.53;10.33;;;0.60;1.00;;;;;;5042653;28;20665;-76
2024/01/28 07:36:45;;;;;;;22.97;10.43;;;0.20;1.00;;;;;;5033160;28;20173;-78
2024/01/28 07:39:13;;;;;;;26.10;12.53;;;0.20;1.00;;;;;;5041479;28;20421;-75
2024/01/28 07:41:38;;;;;;;29.17;12.00;;;0.20;1.00;;;;;;5046409;28;20451;-77
2024/01/28 07:44:04;;;;;;;24.40;11.20;;;0.20;1.00;;;;;;5040194;28;20431;-79
2024/01/28 07:46:29;;;;;;;25.73;10.33;;;0.40;1.00;;;;;;5044442;28;20556;-77
2024/01/28 07:48:55;;;;;;;28.27;9.33;;;0.90;1.00;;;;;;5047306;28;20177;-77
2024/01/28 07:51:21;;;;;;;18.47;9.20;;;0.50;1.00;;;;;;5039583;28;20216;-75
2024/01/28 07:53:46;;;;;;;22.17;9.73;;;0.50;1.00;;;;;;5033868;28;20232;-77
2024/01/28 07:56:12;;;;;;;28.43;9.33;;;1.00;1.00;;;;;;5041488;28;20205;-78
2024/01/28 07:58:37;;;;;;;21.83;9.60;;;1.00;1.00;;;;;;5040416;28;20624;-76
2024/01/28 08:01:05;;;;;;;18.70;9.30;;;0.70;1.00;;;;;;5038944;28;20197;-76
2024/01/28 08:03:30;;;;;;;26.00;9.10;;;0.70;1.00;;;;;;5037296;28;20183;-79
2024/01/28 08:05:56;;;;;;;21.67;9.70;;;0.80;1.00;;;;;;5036628;28;20751;-76
2024/01/28 08:08:21;;;;;;;19.97;9.27;;;0.80;1.00;;;;;;5038881;28;20182;-78
2024/01/28 08:10:47;;;;;;;21.97;8.97;;;0.90;1.00;;;;;;5038282;28;20576;-77
2024/01/28 08:13:12;;;;;;;24.70;10.10;;;1.40;1.00;;;;;;5045103;28;20173;-78
2024/01/28 08:15:38;;;;;;;24.03;9.53;;;1.00;1.00;;;;;;5041486;28;20178;-77
2024/01/28 08:18:04;;;;;;;23.17;9.80;;;1.20;1.00;;;;;;5039468;28;20264;-76
2024/01/28 08:20:29;;;;;;;17.47;9.20;;;1.10;1.00;;;;;;5035941;28;20193;-79
2024/01/28 08:22:55;;;;;;;15.97;9.13;;;1.10;1.00;;;;;;5045136;28;20190;-76
2024/01/28 08:25:20;;;;;;;19.57;9.50;;;1.60;1.00;;;;;;5036725;28;20256;-77
2024/01/28 08:27:46;;;;;;;22.33;9.00;;;1.20;1.00;;;;;;5048337;28;20525;-76
2024/01/28 08:30:12;;;;;;;23.93;9.73;;;1.30;1.00;;;;;;5030056;28;20212;-77
2024/01/28 08:32:38;;;;;;;21.27;8.93;;;1.30;1.00;;;;;;5036153;28;20860;-78
2024/01/28 08:35:04;;;;;;;25.83;10.33;;;1.90;1.00;;;;;;5049971;28;20173;-77
2024/01/28 08:37:29;;;;;;;16.80;8.90;;;1.60;1.00;;;;;;5033563;28;20216;-77
2024/01/28 08:39:55;;;;;;;15.77;8.73;;;;;;;;;;5028381;28;20459;-79
2024/01/28 08:42:21;;;;;;;16.70;10.60;;;1.90;1.00;;;;;;5035926;28;20181;-75
2024/01/28 08:44:47;;;;;;;17.30;9.70;;;2.00;1.00;;;;;;5038377;28;20315;-78
2024/01/28 08:47:13;;;;;;;18.27;9.93;;;2.10;1.00;;;;;;5041164;28;20530;-78
2024/01/28 08:49:38;;;;;;;19.23;9.60;;;2.50;1.00;;;;;;5049114;28;20181;-75
2024/01/28 08:52:04;;;;;;;21.23;10.00;;;2.20;1.00;;;;;;5029716;28;20201;-77
2024/01/28 08:54:30;;;;;;;19.93;8.60;;;2.30;1.00;;;;;;5040892;28;20227;-78
2024/01/28 08:56:56;;;;;;;22.03;10.13;;;2.90;1.00;;;;;;5039002;28;20181;-79
2024/01/28 08:59:22;;;;;;;20.20;9.33;;;2.50;1.00;;;;;;5046898;28;20456;-77
2024/01/28 09:01:49;;;;;;;17.17;9.50;;;2.50;1.00;;;;;;5038367;28;20532;-77
2024/01/28 09:04:15;;;;;;;21.60;10.23;;;2.80;1.00;;;;;;5036617;28;20208;-77
2024/01/28 09:06:41;;;;;;;24.30;9.70;;;2.60;1.00;;;;;;5038466;28;20424;-76
2024/01/28 09:09:08;;;;;;;21.30;11.50;;;2.70;1.00;;;;;;5046381;28;20174;-77
2024/01/28 09:11:35;;;;;;;14.70;9.20;;;2.70;1.00;;;;;;5041167;28;20702;-77
2024/01/28 09:14:01;;;;;;;19.30;9.87;;;2.90;1.00;;;;;;5046801;28;20412;-77
2024/01/28 09:16:27;;;;;;;40.30;16.80;;;3.20;1.00;;;;;;5030099;28;20481;-76
2024/01/28 09:18:52;;;;;;;23.23;11.60;;;3.00;1.00;;;;;;5029679;28;20197;-77
2024/01/28 09:21:18;;;;;;;18.40;9.30;;;3.20;1.00;;;;;;5038142;28;20750;-79
2024/01/28 09:23:43;;;;;;;18.07;8.30;;;3.70;1.00;;;;;;5042493;28;20187;-77
2024/01/28 09:26:09;;;;;;;14.80;8.30;;;4.60;1.00;;;;;;5042088;28;20185;-77
2024/01/28 09:28:34;;;;;;;20.50;9.27;;;6.20;1.00;;;;;;5049411;28;20184;-77
2024/01/28 09:31:00;;;;;;;19.87;8.77;;;9.00;1.00;;;;;;5037070;28;20213;-78
2024/01/28 09:33:26;;;;;;;17.67;7.87;;;9.60;1.00;;;;;;5036335;28;20180;-79
2024/01/28 09:35:52;;;;;;;22.40;9.90;;;11.40;1.00;;;;;;5045886;28;20177;-77
2024/01/28 09:38:18;;;;;;;12.03;7.90;;;12.50;1.00;;;;;;5046889;28;20484;-78
2024/01/28 09:40:44;;;;;;;11.47;7.77;;;13.40;1.00;;;;;;5040289;28;20210;-76
2024/01/28 09:43:18;;;;;;;13.87;8.53;;;13.60;1.00;;;;;;5040962;28;20442;-78
2024/01/28 09:45:44;;;;;;;15.63;10.07;;;14.50;1.00;;;;;;5040862;28;20284;-78
2024/01/28 09:48:12;;;;;;;15.40;9.40;;;15.10;1.00;;;;;;5048907;28;20435;-77
2024/01/28 09:50:39;;;;;;;19.20;12.30;;;15.70;1.00;;;;;;5041698;28;20351;-79
2024/01/28 09:53:04;;;;;;;18.03;11.50;;;15.80;1.00;;;;;;5045941;28;20945;-78
2024/01/28 09:55:30;;;;;;;17.37;10.87;;;15.50;1.00;;;;;;5037437;28;20499;-79
2024/01/28 09:57:55;;;;;;;19.13;10.20;;;15.50;1.00;;;;;;5036348;28;20223;-80
2024/01/28 10:00:22;;;;;;;18.67;10.97;;;18.00;1.00;;;;;;5034302;28;20254;-78
2024/01/28 10:02:48;;;;;;;16.50;11.00;;;18.20;1.00;;;;;;5040293;28;20644;-78
2024/01/28 10:05:14;;;;;;;17.97;10.10;;;19.40;1.00;;;;;;5032257;28;20426;-79
2024/01/28 10:07:48;;;;;;;17.10;11.30;;;19.40;1.00;;;;;;5037442;28;20179;-78
2024/01/28 10:10:17;;;;;;;17.13;10.83;;;19.80;1.00;;;;;;5041270;28;20668;-79
2024/01/28 10:12:43;;;;;;;20.33;14.00;;;19.80;1.00;;;;;;5041856;28;20408;-78
2024/01/28 10:15:17;;;;;;;18.73;13.37;;;19.60;1.00;;;;;;5035451;28;20473;-78
2024/01/28 10:17:47;;;;;;;20.10;12.40;;;20.20;1.00;;;;;;5037228;28;20440;-78
2024/01/28 10:20:18;;;;;;;17.43;11.17;;;19.10;1.00;;;;;;5038479;28;20399;-78
2024/01/28 10:22:43;;;;;;;14.37;10.70;;;19.00;1.00;;;;;;5034100;28;20802;-78
2024/01/28 10:25:16;;;;;;;14.80;10.37;;;18.90;1.00;;;;;;5036738;28;20407;-80
2024/01/28 10:27:43;;;;;;;18.63;10.90;;;20.00;1.00;;;;;;5041817;28;20173;-78
2024/01/28 10:30:10;;;;;;;18.23;11.37;;;20.80;1.00;;;;;;5031694;28;20451;-78
2024/01/28 10:32:35;;;;;;;16.73;11.30;;;20.80;1.00;;;;;;5038702;28;20830;-79
2024/01/28 10:35:01;;;;;;;20.80;10.97;;;21.10;1.00;;;;;;5034912;28;20416;-78
2024/01/28 10:37:32;;;;;;;17.43;10.50;;;21.80;1.00;;;;;;5032850;28;20174;-78
2024/01/28 10:40:05;;;;;;;17.60;10.77;;;21.20;1.00;;;;;;5045713;28;20184;-78
2024/01/28 10:42:37;;;;;;;14.97;10.43;;;21.10;1.00;;;;;;5038278;28;20907;-78
2024/01/28 10:45:11;;;;;;;14.40;10.60;;;21.30;1.00;;;;;;5040517;28;20534;-76
2024/01/28 10:47:42;;;;;;;17.13;11.53;;;21.70;1.00;;;;;;5041426;28;20917;-79
2024/01/28 10:50:09;;;;;;;18.80;10.33;;;22.40;1.00;;;;;;5032313;28;20948;-79
2024/01/28 10:52:37;;;;;;;15.73;10.30;;;22.50;1.00;;;;;;5037516;28;20575;-79
2024/01/28 10:55:04;;;;;;;14.83;10.33;;;23.00;1.00;;;;;;5034860;28;20415;-78
2024/01/28 10:57:36;;;;;;;18.70;10.87;;;23.60;1.00;;;;;;5045150;28;20917;-78
2024/01/28 11:00:05;;;;;;;14.80;10.10;;;22.00;1.00;;;;;;5042352;28;20419;-79
2024/01/28 11:02:33;;;;;;;24.23;11.30;;;22.00;1.00;;;;;;5036276;28;20448;-78
2024/01/28 11:04:59;;;;;;;18.70;10.60;;;21.60;1.00;;;;;;5037017;28;20982;-78
2024/01/28 11:07:25;;;;;;;14.57;9.97;;;22.70;1.00;;;;;;5036261;28;20418;-78
2024/01/28 11:09:52;;;;;;;15.27;10.20;;;22.90;1.00;;;;;;5044661;28;20173;-80
2024/01/28 11:12:19;;;;;;;13.20;9.13;;;22.70;1.00;;;;;;5045033;28;20434;-79
2024/01/28 11:14:46;;;;;;;15.30;9.00;;;23.30;1.00;;;;;;5048595;28;20773;-78
2024/01/28 11:17:12;;;;;;;13.73;9.00;;;23.40;1.00;;;;;;5049936;28;20423;-79
2024/01/28 11:19:37;;;;;;;19.03;9.10;;;24.60;1.00;;;;;;5043391;28;20426;-80
2024/01/28 11:22:03;;;;;;;14.83;9.03;;;24.40;1.00;;;;;;5041412;28;20258;-79
2024/01/28 11:24:29;;;;;;;13.03;8.43;;;24.70;1.00;;;;;;5036942;28;20302;-78
2024/01/28 11:26:58;;;;;;;14.07;9.03;;;23.80;1.00;;;;;;5040523;28;20511;-79
2024/01/28 11:29:32;;;;;;;11.60;8.80;;;23.60;1.00;;;;;;5045836;28;20180;-79
2024/01/28 11:32:04;;;;;;;12.17;8.23;;;23.30;1.00;;;;;;5034525;28;20846;-80
2024/01/28 11:34:29;;;;;;;13.00;8.13;;;23.10;1.00;;;;;;5048478;28;20821;-78
2024/01/28 11:36:55;;;;;;;12.33;8.20;;;23.30;1.00;;;;;;5032919;28;20421;-78
2024/01/28 11:39:29;;;;;;;15.97;8.43;;;23.90;1.00;;;;;;5043054;28;20176;-79
2024/01/28 11:41:55;;;;;;;13.43;8.43;;;24.30;1.00;;;;;;5045193;28;20200;-77
2024/01/28 11:44:22;;;;;;;15.90;8.57;;;24.70;1.00;;;;;;5041335;28;20439;-78
2024/01/28 11:46:49;;;;;;;12.77;8.10;;;24.90;1.00;;;;;;5042859;28;20180;-78
2024/01/28 11:49:14;;;;;;;13.17;8.80;;;25.70;1.00;;;;;;5048522;28;20933;-78
2024/01/28 11:51:40;;;;;;;13.80;9.47;;;25.20;1.00;;;;;;5041813;28;20546;-79
2024/01/28 11:54:06;;;;;;;11.50;7.87;;;24.80;1.00;;;;;;5033036;28;20540;-79
2024/01/28 11:56:32;;;;;;;11.70;9.07;;;25.30;1.00;;;;;;5039459;28;20174;-79
2024/01/28 11:58:58;;;;;;;14.30;8.20;;;25.20;1.00;;;;;;5042091;28;20239;-78
2024/01/28 12:01:25;;;;;;;14.30;9.83;;;25.80;1.00;;;;;;5037637;28;20296;-79
2024/01/28 12:03:51;;;;;;;12.07;8.53;;;25.90;1.00;;;;;;5044281;28;20268;-78
2024/01/28 12:06:17;;;;;;;13.67;9.23;;;25.70;1.00;;;;;;5038265;28;20227;-78
2024/01/28 12:08:43;;;;;;;13.47;9.47;;;26.00;1.00;;;;;;5042254;28;20247;-79
2024/01/28 12:11:14;;;;;;;19.10;10.90;;;25.50;1.00;;;;;;5038701;28;20307;-78
2024/01/28 12:13:41;;;;;;;15.57;9.83;;;25.30;1.00;;;;;;5038849;28;20180;-79
2024/01/28 12:16:07;;;;;;;14.30;10.07;;;25.20;1.00;;;;;;5032955;28;20204;-77
2024/01/28 12:18:33;;;;;;;15.80;10.47;;;24.90;1.00;;;;;;5039774;28;20216;-79
2024/01/28 12:20:59;;;;;;;15.33;10.50;;;25.70;1.00;;;;;;5035912;28;20208;-77
2024/01/28 12:23:25;;;;;;;14.20;10.07;;;26.00;1.00;;;;;;5041293;28;20223;-80
2024/01/28 12:25:50;;;;;;;16.13;9.50;;;27.00;1.00;;;;;;5039953;28;20181;-79
2024/01/28 12:28:16;;;;;;;16.00;10.00;;;27.00;1.00;;;;;;5039587;28;20668;-79
2024/01/28 12:30:41;;;;;;;18.43;13.20;;;27.10;1.00;;;;;;5040256;28;20234;-78
2024/01/28 12:33:07;;;;;;;17.03;12.40;;;27.00;1.00;;;;;;5033073;28;20234;-78
2024/01/28 12:35:33;;;;;;;15.40;11.30;;;26.70;1.00;;;;;;5038989;28;20186;-78
2024/01/28 12:37:58;;;;;;;13.30;10.30;;;26.60;1.00;;;;;;5033658;28;20247;-80
2024/01/28 12:40:24;;;;;;;15.37;10.80;;;26.90;1.00;;;;;;5042555;28;20204;-79
2024/01/28 12:42:50;;;;;;;18.30;11.60;;;26.90;1.00;;;;;;5036802;28;20208;-78
2024/01/28 12:45:15;;;;;;;14.30;10.27;;;27.80;1.00;;;;;;5040351;28;20193;-79
2024/01/28 12:47:41;;;;;;;14.23;9.57;;;27.10;1.00;;;;;;5037025;28;20188;-78